sensor_id;sensor_type;location;lat;lon;timestamp;temperature;humidity
43183;DHT22;28802;38.578;-0.066;2023-02-19T00:01:07;9.80;99.90
43183;DHT22;28802;38.578;-0.066;2023-02-19T00:03:34;9.60;99.90
43183;DHT22;28802;38.578;-0.066;2023-02-19T00:06:01;9.60;99.90
43183;DHT22;28802;38.578;-0.066;2023-02-19T00:08:29;9.50;99.90
43183;DHT22;28802;38.578;-0.066;2023-02-19T00:11:03;9.40;99.90
43183;DHT22;28802;38.578;-0.066;2023-02-19T00:13:30;9.60;99.90
43183;DHT22;28802;38.578;-0.066;2023-02-19T00:15:56;9.70;99.90
43183;DHT22;28802;38.578;-0.066;2023-02-19T00:18:23;9.60;99.90
43183;DHT22;28802;38.578;-0.066;2023-02-19T00:20:48;9.60;99.90
43183;DHT22;28802;38.578;-0.066;2023-02-19T00:23:14;9.60;99.90
43183;DHT22;28802;38.578;-0.066;2023-02-19T00:25:40;9.50;99.90
43183;DHT22;28802;38.578;-0.066;2023-02-19T00:28:06;9.40;99.90
43183;DHT22;28802;38.578;-0.066;2023-02-19T00:30:32;9.30;99.90
43183;DHT22;28802;38.578;-0.066;2023-02-19T00:32:58;9.50;99.90
43183;DHT22;28802;38.578;-0.066;2023-02-19T00:35:24;9.40;99.90
43183;DHT22;28802;38.578;-0.066;2023-02-19T00:37:50;9.40;99.90
43183;DHT22;28802;38.578;-0.066;2023-02-19T00:40:16;9.40;99.90
43183;DHT22;28802;38.578;-0.066;2023-02-19T00:42:42;9.50;99.90
43183;DHT22;28802;38.578;-0.066;2023-02-19T00:45:08;9.70;99.90
43183;DHT22;28802;38.578;-0.066;2023-02-19T00:47:34;9.70;99.90
43183;DHT22;28802;38.578;-0.066;2023-02-19T00:50:00;9.80;99.90
43183;DHT22;28802;38.578;-0.066;2023-02-19T00:52:25;9.90;99.90
43183;DHT22;28802;38.578;-0.066;2023-02-19T00:54:51;9.90;99.90
43183;DHT22;28802;38.578;-0.066;2023-02-19T00:57:17;9.90;99.90
43183;DHT22;28802;38.578;-0.066;2023-02-19T00:59:43;9.80;99.90
43183;DHT22;28802;38.578;-0.066;2023-02-19T01:02:09;9.90;99.90
43183;DHT22;28802;38.578;-0.066;2023-02-19T01:04:36;10.00;99.90
43183;DHT22;28802;38.578;-0.066;2023-02-19T01:07:01;10.10;99.90
43183;DHT22;28802;38.578;-0.066;2023-02-19T01:09:27;10.10;99.90
43183;DHT22;28802;38.578;-0.066;2023-02-19T01:11:53;9.90;99.90
43183;DHT22;28802;38.578;-0.066;2023-02-19T01:14:19;10.00;99.90
43183;DHT22;28802;38.578;-0.066;2023-02-19T01:16:45;9.70;99.90
43183;DHT22;28802;38.578;-0.066;2023-02-19T01:19:11;9.70;99.90
43183;DHT22;28802;38.578;-0.066;2023-02-19T01:21:38;9.60;99.90
43183;DHT22;28802;38.578;-0.066;2023-02-19T01:24:04;9.60;99.90
43183;DHT22;28802;38.578;-0.066;2023-02-19T01:26:31;9.60;99.90
43183;DHT22;28802;38.578;-0.066;2023-02-19T01:29:01;9.60;99.90
43183;DHT22;28802;38.578;-0.066;2023-02-19T01:31:28;9.70;99.90
43183;DHT22;28802;38.578;-0.066;2023-02-19T01:33:56;9.90;99.90
43183;DHT22;28802;38.578;-0.066;2023-02-19T01:36:23;9.80;99.90
43183;DHT22;28802;38.578;-0.066;2023-02-19T01:38:49;9.80;99.90
43183;DHT22;28802;38.578;-0.066;2023-02-19T01:41:20;9.90;99.90
43183;DHT22;28802;38.578;-0.066;2023-02-19T01:44:02;9.90;99.90
43183;DHT22;28802;38.578;-0.066;2023-02-19T01:46:36;9.80;99.90
43183;DHT22;28802;38.578;-0.066;2023-02-19T01:49:09;9.90;99.90
43183;DHT22;28802;38.578;-0.066;2023-02-19T01:51:43;9.70;99.90
43183;DHT22;28802;38.578;-0.066;2023-02-19T01:54:12;9.70;99.90
43183;DHT22;28802;38.578;-0.066;2023-02-19T01:56:41;9.60;99.90
43183;DHT22;28802;38.578;-0.066;2023-02-19T01:59:08;9.70;99.90
43183;DHT22;28802;38.578;-0.066;2023-02-19T02:01:36;9.80;99.90
43183;DHT22;28802;38.578;-0.066;2023-02-19T02:04:04;9.90;99.90
43183;DHT22;28802;38.578;-0.066;2023-02-19T02:06:34;9.80;99.90
43183;DHT22;28802;38.578;-0.066;2023-02-19T02:09:02;9.70;99.90
43183;DHT22;28802;38.578;-0.066;2023-02-19T02:11:50;9.80;99.90
43183;DHT22;28802;38.578;-0.066;2023-02-19T02:14:17;9.80;99.90
43183;DHT22;28802;38.578;-0.066;2023-02-19T02:20:01;9.60;99.90
43183;DHT22;28802;38.578;-0.066;2023-02-19T02:22:43;9.60;99.90
43183;DHT22;28802;38.578;-0.066;2023-02-19T02:33:25;9.60;99.90
43183;DHT22;28802;38.578;-0.066;2023-02-19T02:36:02;9.60;99.90
43183;DHT22;28802;38.578;-0.066;2023-02-19T02:38:32;9.60;99.90
43183;DHT22;28802;38.578;-0.066;2023-02-19T02:41:00;9.50;99.90
43183;DHT22;28802;38.578;-0.066;2023-02-19T02:43:28;9.40;99.90
43183;DHT22;28802;38.578;-0.066;2023-02-19T02:45:54;9.40;99.90
43183;DHT22;28802;38.578;-0.066;2023-02-19T02:48:56;9.50;99.90
43183;DHT22;28802;38.578;-0.066;2023-02-19T02:51:48;9.50;99.90
43183;DHT22;28802;38.578;-0.066;2023-02-19T02:54:22;9.50;99.90
43183;DHT22;28802;38.578;-0.066;2023-02-19T02:57:12;9.40;99.90
43183;DHT22;28802;38.578;-0.066;2023-02-19T02:59:45;9.30;99.90
43183;DHT22;28802;38.578;-0.066;2023-02-19T03:02:33;9.30;99.90
43183;DHT22;28802;38.578;-0.066;2023-02-19T03:05:11;9.40;99.90
43183;DHT22;28802;38.578;-0.066;2023-02-19T03:08:16;9.30;99.90
43183;DHT22;28802;38.578;-0.066;2023-02-19T03:13:26;9.00;99.90
43183;DHT22;28802;38.578;-0.066;2023-02-19T03:16:33;9.10;99.90
43183;DHT22;28802;38.578;-0.066;2023-02-19T03:19:19;9.20;99.90
43183;DHT22;28802;38.578;-0.066;2023-02-19T03:21:59;9.20;99.90
43183;DHT22;28802;38.578;-0.066;2023-02-19T03:24:38;9.20;99.90
43183;DHT22;28802;38.578;-0.066;2023-02-19T03:27:27;9.30;99.90
43183;DHT22;28802;38.578;-0.066;2023-02-19T03:29:58;9.30;99.90
43183;DHT22;28802;38.578;-0.066;2023-02-19T03:32:30;9.30;99.90
43183;DHT22;28802;38.578;-0.066;2023-02-19T03:35:14;9.30;99.90
43183;DHT22;28802;38.578;-0.066;2023-02-19T03:38:07;9.30;99.90
43183;DHT22;28802;38.578;-0.066;2023-02-19T03:40:45;9.20;99.90
43183;DHT22;28802;38.578;-0.066;2023-02-19T03:43:18;9.20;99.90
43183;DHT22;28802;38.578;-0.066;2023-02-19T03:46:11;9.20;99.90
43183;DHT22;28802;38.578;-0.066;2023-02-19T03:48:57;8.90;99.90
43183;DHT22;28802;38.578;-0.066;2023-02-19T03:51:43;8.80;99.90
43183;DHT22;28802;38.578;-0.066;2023-02-19T04:02:23;8.70;99.90
43183;DHT22;28802;38.578;-0.066;2023-02-19T04:07:34;9.30;99.90
43183;DHT22;28802;38.578;-0.066;2023-02-19T04:10:03;9.40;99.90
43183;DHT22;28802;38.578;-0.066;2023-02-19T04:12:31;9.40;99.90
43183;DHT22;28802;38.578;-0.066;2023-02-19T04:15:02;9.50;99.90
43183;DHT22;28802;38.578;-0.066;2023-02-19T04:17:43;9.60;99.90
43183;DHT22;28802;38.578;-0.066;2023-02-19T04:20:11;9.60;99.90
43183;DHT22;28802;38.578;-0.066;2023-02-19T04:22:38;9.70;99.90
43183;DHT22;28802;38.578;-0.066;2023-02-19T04:25:05;9.70;99.90
43183;DHT22;28802;38.578;-0.066;2023-02-19T04:27:33;9.70;99.90
43183;DHT22;28802;38.578;-0.066;2023-02-19T04:30:00;9.50;99.90
43183;DHT22;28802;38.578;-0.066;2023-02-19T04:32:26;9.50;99.90
43183;DHT22;28802;38.578;-0.066;2023-02-19T04:34:52;9.60;99.90
43183;DHT22;28802;38.578;-0.066;2023-02-19T04:37:17;9.70;99.90
43183;DHT22;28802;38.578;-0.066;2023-02-19T04:39:43;9.70;99.90
43183;DHT22;28802;38.578;-0.066;2023-02-19T04:42:10;9.60;99.90
43183;DHT22;28802;38.578;-0.066;2023-02-19T04:44:35;9.40;99.90
43183;DHT22;28802;38.578;-0.066;2023-02-19T04:47:01;9.40;99.90
43183;DHT22;28802;38.578;-0.066;2023-02-19T04:49:27;9.20;99.90
43183;DHT22;28802;38.578;-0.066;2023-02-19T04:51:53;9.20;99.90
43183;DHT22;28802;38.578;-0.066;2023-02-19T04:54:19;9.10;99.90
43183;DHT22;28802;38.578;-0.066;2023-02-19T04:56:45;9.20;99.90
43183;DHT22;28802;38.578;-0.066;2023-02-19T04:59:14;9.20;99.90
43183;DHT22;28802;38.578;-0.066;2023-02-19T05:01:40;8.90;99.90
43183;DHT22;28802;38.578;-0.066;2023-02-19T05:04:05;9.00;99.90
43183;DHT22;28802;38.578;-0.066;2023-02-19T05:06:31;9.00;99.90
43183;DHT22;28802;38.578;-0.066;2023-02-19T05:08:57;8.80;99.90
43183;DHT22;28802;38.578;-0.066;2023-02-19T05:11:23;8.70;99.90
43183;DHT22;28802;38.578;-0.066;2023-02-19T05:13:49;8.80;99.90
43183;DHT22;28802;38.578;-0.066;2023-02-19T05:16:15;8.90;99.90
43183;DHT22;28802;38.578;-0.066;2023-02-19T05:18:43;8.80;99.90
43183;DHT22;28802;38.578;-0.066;2023-02-19T05:21:10;8.70;99.90
43183;DHT22;28802;38.578;-0.066;2023-02-19T05:23:36;8.70;99.90
43183;DHT22;28802;38.578;-0.066;2023-02-19T05:26:13;8.70;99.90
43183;DHT22;28802;38.578;-0.066;2023-02-19T05:28:41;8.90;99.90
43183;DHT22;28802;38.578;-0.066;2023-02-19T05:31:08;9.00;99.90
43183;DHT22;28802;38.578;-0.066;2023-02-19T05:33:35;9.00;99.90
43183;DHT22;28802;38.578;-0.066;2023-02-19T05:36:11;9.10;99.90
43183;DHT22;28802;38.578;-0.066;2023-02-19T05:38:38;9.10;99.90
43183;DHT22;28802;38.578;-0.066;2023-02-19T05:41:21;9.10;99.90
43183;DHT22;28802;38.578;-0.066;2023-02-19T05:43:48;9.00;99.90
43183;DHT22;28802;38.578;-0.066;2023-02-19T05:46:16;8.90;99.90
43183;DHT22;28802;38.578;-0.066;2023-02-19T05:48:44;8.80;99.90
43183;DHT22;28802;38.578;-0.066;2023-02-19T05:51:13;8.80;99.90
43183;DHT22;28802;38.578;-0.066;2023-02-19T05:53:41;8.80;99.90
43183;DHT22;28802;38.578;-0.066;2023-02-19T05:59:18;8.70;99.90
43183;DHT22;28802;38.578;-0.066;2023-02-19T06:01:45;8.50;99.90
43183;DHT22;28802;38.578;-0.066;2023-02-19T06:04:11;8.40;99.90
43183;DHT22;28802;38.578;-0.066;2023-02-19T06:06:37;8.30;99.90
43183;DHT22;28802;38.578;-0.066;2023-02-19T06:09:04;8.40;99.90
43183;DHT22;28802;38.578;-0.066;2023-02-19T06:11:33;8.50;99.90
43183;DHT22;28802;38.578;-0.066;2023-02-19T06:13:59;8.60;99.90
43183;DHT22;28802;38.578;-0.066;2023-02-19T06:16:25;8.60;99.90
43183;DHT22;28802;38.578;-0.066;2023-02-19T06:18:51;8.30;99.90
43183;DHT22;28802;38.578;-0.066;2023-02-19T06:21:18;8.20;99.90
43183;DHT22;28802;38.578;-0.066;2023-02-19T06:23:44;8.10;99.90
43183;DHT22;28802;38.578;-0.066;2023-02-19T06:26:13;8.00;99.90
43183;DHT22;28802;38.578;-0.066;2023-02-19T06:28:40;8.00;99.90
43183;DHT22;28802;38.578;-0.066;2023-02-19T06:31:08;8.00;99.90
43183;DHT22;28802;38.578;-0.066;2023-02-19T06:33:34;7.90;99.90
43183;DHT22;28802;38.578;-0.066;2023-02-19T06:36:02;8.10;99.90
43183;DHT22;28802;38.578;-0.066;2023-02-19T06:38:29;8.30;99.90
43183;DHT22;28802;38.578;-0.066;2023-02-19T06:41:02;8.50;99.90
43183;DHT22;28802;38.578;-0.066;2023-02-19T06:43:30;8.40;99.90
43183;DHT22;28802;38.578;-0.066;2023-02-19T06:46:01;8.30;99.90
43183;DHT22;28802;38.578;-0.066;2023-02-19T06:48:29;8.40;99.90
43183;DHT22;28802;38.578;-0.066;2023-02-19T06:50:55;8.40;99.90
43183;DHT22;28802;38.578;-0.066;2023-02-19T06:53:22;8.60;99.90
43183;DHT22;28802;38.578;-0.066;2023-02-19T06:56:02;8.80;99.90
43183;DHT22;28802;38.578;-0.066;2023-02-19T06:58:28;8.70;99.90
43183;DHT22;28802;38.578;-0.066;2023-02-19T07:00:54;8.90;99.90
43183;DHT22;28802;38.578;-0.066;2023-02-19T07:03:21;9.00;99.90
43183;DHT22;28802;38.578;-0.066;2023-02-19T07:05:47;9.00;99.90
43183;DHT22;28802;38.578;-0.066;2023-02-19T07:08:13;9.10;99.90
43183;DHT22;28802;38.578;-0.066;2023-02-19T07:10:43;9.20;99.90
43183;DHT22;28802;38.578;-0.066;2023-02-19T07:13:09;9.40;99.90
43183;DHT22;28802;38.578;-0.066;2023-02-19T07:15:35;9.50;99.90
43183;DHT22;28802;38.578;-0.066;2023-02-19T07:18:01;9.60;99.90
43183;DHT22;28802;38.578;-0.066;2023-02-19T07:20:26;9.90;99.90
43183;DHT22;28802;38.578;-0.066;2023-02-19T07:22:52;10.30;99.90
43183;DHT22;28802;38.578;-0.066;2023-02-19T07:25:18;10.50;99.90
43183;DHT22;28802;38.578;-0.066;2023-02-19T07:27:44;10.60;99.90
43183;DHT22;28802;38.578;-0.066;2023-02-19T07:30:10;10.60;99.90
43183;DHT22;28802;38.578;-0.066;2023-02-19T07:32:40;10.50;99.90
43183;DHT22;28802;38.578;-0.066;2023-02-19T07:35:06;10.60;99.90
43183;DHT22;28802;38.578;-0.066;2023-02-19T07:37:32;10.60;99.90
43183;DHT22;28802;38.578;-0.066;2023-02-19T07:39:58;10.80;99.90
43183;DHT22;28802;38.578;-0.066;2023-02-19T07:42:24;10.90;99.90
43183;DHT22;28802;38.578;-0.066;2023-02-19T07:44:50;11.00;99.90
43183;DHT22;28802;38.578;-0.066;2023-02-19T07:47:16;11.10;99.90
43183;DHT22;28802;38.578;-0.066;2023-02-19T07:49:42;10.90;99.90
43183;DHT22;28802;38.578;-0.066;2023-02-19T07:52:08;11.00;99.90
43183;DHT22;28802;38.578;-0.066;2023-02-19T07:54:34;11.10;99.90
43183;DHT22;28802;38.578;-0.066;2023-02-19T07:57:00;11.20;99.90
43183;DHT22;28802;38.578;-0.066;2023-02-19T07:59:25;11.30;99.90
43183;DHT22;28802;38.578;-0.066;2023-02-19T08:01:51;10.70;99.90
43183;DHT22;28802;38.578;-0.066;2023-02-19T08:04:36;10.80;99.90
43183;DHT22;28802;38.578;-0.066;2023-02-19T08:07:02;11.40;99.90
43183;DHT22;28802;38.578;-0.066;2023-02-19T08:09:30;11.70;99.90
43183;DHT22;28802;38.578;-0.066;2023-02-19T08:11:56;11.90;99.90
43183;DHT22;28802;38.578;-0.066;2023-02-19T08:14:48;11.90;99.90
43183;DHT22;28802;38.578;-0.066;2023-02-19T08:17:13;11.90;99.90
43183;DHT22;28802;38.578;-0.066;2023-02-19T08:19:39;12.10;99.90
43183;DHT22;28802;38.578;-0.066;2023-02-19T08:22:08;12.20;99.90
43183;DHT22;28802;38.578;-0.066;2023-02-19T08:24:37;12.00;99.90
43183;DHT22;28802;38.578;-0.066;2023-02-19T08:27:07;12.20;99.90
43183;DHT22;28802;38.578;-0.066;2023-02-19T08:29:33;12.30;99.90
43183;DHT22;28802;38.578;-0.066;2023-02-19T08:31:59;12.30;99.90
43183;DHT22;28802;38.578;-0.066;2023-02-19T08:34:25;12.40;99.90
43183;DHT22;28802;38.578;-0.066;2023-02-19T08:36:54;12.20;99.90
43183;DHT22;28802;38.578;-0.066;2023-02-19T08:39:20;12.30;99.90
43183;DHT22;28802;38.578;-0.066;2023-02-19T08:41:46;12.30;99.90
43183;DHT22;28802;38.578;-0.066;2023-02-19T08:44:12;12.50;99.90
43183;DHT22;28802;38.578;-0.066;2023-02-19T08:46:38;12.50;99.90
43183;DHT22;28802;38.578;-0.066;2023-02-19T08:49:04;12.60;99.90
43183;DHT22;28802;38.578;-0.066;2023-02-19T08:51:30;12.70;99.90
43183;DHT22;28802;38.578;-0.066;2023-02-19T08:53:56;12.80;99.90
43183;DHT22;28802;38.578;-0.066;2023-02-19T08:56:22;12.90;99.90
43183;DHT22;28802;38.578;-0.066;2023-02-19T08:58:48;13.10;99.90
43183;DHT22;28802;38.578;-0.066;2023-02-19T09:01:15;13.20;99.90
43183;DHT22;28802;38.578;-0.066;2023-02-19T09:03:43;13.20;99.90
43183;DHT22;28802;38.578;-0.066;2023-02-19T09:06:14;13.10;99.90
43183;DHT22;28802;38.578;-0.066;2023-02-19T09:08:44;12.90;99.90
43183;DHT22;28802;38.578;-0.066;2023-02-19T09:11:13;13.00;99.90
43183;DHT22;28802;38.578;-0.066;2023-02-19T09:13:40;13.10;99.90
43183;DHT22;28802;38.578;-0.066;2023-02-19T09:16:09;13.00;99.90
43183;DHT22;28802;38.578;-0.066;2023-02-19T09:18:35;12.90;99.90
43183;DHT22;28802;38.578;-0.066;2023-02-19T09:21:03;13.00;99.90
43183;DHT22;28802;38.578;-0.066;2023-02-19T09:23:32;13.20;99.90
43183;DHT22;28802;38.578;-0.066;2023-02-19T09:25:59;13.40;99.90
43183;DHT22;28802;38.578;-0.066;2023-02-19T09:28:26;13.70;99.90
43183;DHT22;28802;38.578;-0.066;2023-02-19T09:30:52;13.80;99.90
43183;DHT22;28802;38.578;-0.066;2023-02-19T09:33:18;13.90;99.90
43183;DHT22;28802;38.578;-0.066;2023-02-19T09:35:44;14.20;99.90
43183;DHT22;28802;38.578;-0.066;2023-02-19T09:38:10;14.90;99.90
43183;DHT22;28802;38.578;-0.066;2023-02-19T09:40:37;15.70;99.90
43183;DHT22;28802;38.578;-0.066;2023-02-19T09:43:15;16.30;99.90
43183;DHT22;28802;38.578;-0.066;2023-02-19T09:45:43;17.50;99.90
43183;DHT22;28802;38.578;-0.066;2023-02-19T09:48:10;18.30;99.90
43183;DHT22;28802;38.578;-0.066;2023-02-19T09:50:41;19.20;99.90
43183;DHT22;28802;38.578;-0.066;2023-02-19T09:53:20;20.20;99.90
43183;DHT22;28802;38.578;-0.066;2023-02-19T09:55:48;20.90;99.90
43183;DHT22;28802;38.578;-0.066;2023-02-19T10:00:56;21.00;99.90
43183;DHT22;28802;38.578;-0.066;2023-02-19T10:03:31;20.60;99.90
43183;DHT22;28802;38.578;-0.066;2023-02-19T10:06:27;19.70;99.90
43183;DHT22;28802;38.578;-0.066;2023-02-19T10:11:39;19.40;99.90
43183;DHT22;28802;38.578;-0.066;2023-02-19T10:14:10;19.60;99.90
43183;DHT22;28802;38.578;-0.066;2023-02-19T10:16:40;18.80;99.90
43183;DHT22;28802;38.578;-0.066;2023-02-19T10:19:11;18.70;99.90
43183;DHT22;28802;38.578;-0.066;2023-02-19T10:21:39;18.00;99.90
43183;DHT22;28802;38.578;-0.066;2023-02-19T10:24:06;17.40;99.90
43183;DHT22;28802;38.578;-0.066;2023-02-19T10:26:33;17.40;99.90
43183;DHT22;28802;38.578;-0.066;2023-02-19T10:29:02;17.40;99.90
43183;DHT22;28802;38.578;-0.066;2023-02-19T10:31:32;18.50;99.90
43183;DHT22;28802;38.578;-0.066;2023-02-19T10:34:00;17.90;99.90
43183;DHT22;28802;38.578;-0.066;2023-02-19T10:36:34;17.50;99.90
43183;DHT22;28802;38.578;-0.066;2023-02-19T10:39:18;16.90;99.90
43183;DHT22;28802;38.578;-0.066;2023-02-19T10:41:51;16.60;99.90
43183;DHT22;28802;38.578;-0.066;2023-02-19T10:44:26;16.70;99.90
43183;DHT22;28802;38.578;-0.066;2023-02-19T10:46:55;17.00;99.90
43183;DHT22;28802;38.578;-0.066;2023-02-19T10:49:31;16.80;99.90
43183;DHT22;28802;38.578;-0.066;2023-02-19T10:52:12;17.50;99.90
43183;DHT22;28802;38.578;-0.066;2023-02-19T10:54:48;17.60;99.90
43183;DHT22;28802;38.578;-0.066;2023-02-19T11:02:44;16.90;99.90
43183;DHT22;28802;38.578;-0.066;2023-02-19T11:07:54;16.50;99.90
43183;DHT22;28802;38.578;-0.066;2023-02-19T11:10:42;16.00;99.90
43183;DHT22;28802;38.578;-0.066;2023-02-19T11:13:15;15.70;99.90
43183;DHT22;28802;38.578;-0.066;2023-02-19T11:15:42;15.90;99.90
43183;DHT22;28802;38.578;-0.066;2023-02-19T11:21:01;16.90;99.90
43183;DHT22;28802;38.578;-0.066;2023-02-19T11:23:47;17.30;99.90
43183;DHT22;28802;38.578;-0.066;2023-02-19T11:26:19;18.00;99.90
43183;DHT22;28802;38.578;-0.066;2023-02-19T11:28:58;18.60;99.90
43183;DHT22;28802;38.578;-0.066;2023-02-19T11:31:29;17.30;99.90
43183;DHT22;28802;38.578;-0.066;2023-02-19T11:36:46;17.30;99.90
43183;DHT22;28802;38.578;-0.066;2023-02-19T11:44:37;18.10;99.90
43183;DHT22;28802;38.578;-0.066;2023-02-19T11:55:33;17.60;99.90
43183;DHT22;28802;38.578;-0.066;2023-02-19T11:58:16;17.40;99.90
43183;DHT22;28802;38.578;-0.066;2023-02-19T12:06:46;17.70;99.90
43183;DHT22;28802;38.578;-0.066;2023-02-19T12:26:23;16.30;99.90
43183;DHT22;28802;38.578;-0.066;2023-02-19T12:34:30;17.70;99.90
43183;DHT22;28802;38.578;-0.066;2023-02-19T12:40:14;16.50;99.90
43183;DHT22;28802;38.578;-0.066;2023-02-19T12:42:59;16.70;99.90
43183;DHT22;28802;38.578;-0.066;2023-02-19T12:45:39;16.90;99.90
43183;DHT22;28802;38.578;-0.066;2023-02-19T12:48:35;16.10;99.90
43183;DHT22;28802;38.578;-0.066;2023-02-19T12:51:04;15.80;99.90
43183;DHT22;28802;38.578;-0.066;2023-02-19T12:53:43;15.50;99.90
43183;DHT22;28802;38.578;-0.066;2023-02-19T12:56:22;15.40;99.90
43183;DHT22;28802;38.578;-0.066;2023-02-19T12:58:59;15.60;99.90
43183;DHT22;28802;38.578;-0.066;2023-02-19T13:01:32;15.70;99.90
43183;DHT22;28802;38.578;-0.066;2023-02-19T13:07:19;16.00;99.90
43183;DHT22;28802;38.578;-0.066;2023-02-19T13:12:25;15.60;99.90
43183;DHT22;28802;38.578;-0.066;2023-02-19T13:15:01;15.90;99.90
43183;DHT22;28802;38.578;-0.066;2023-02-19T13:17:44;16.40;99.90
43183;DHT22;28802;38.578;-0.066;2023-02-19T13:20:23;16.50;99.90
43183;DHT22;28802;38.578;-0.066;2023-02-19T13:23:29;16.20;99.90
43183;DHT22;28802;38.578;-0.066;2023-02-19T13:29:29;15.80;99.90
43183;DHT22;28802;38.578;-0.066;2023-02-19T13:34:48;15.20;99.90
43183;DHT22;28802;38.578;-0.066;2023-02-19T13:37:16;15.10;99.90
43183;DHT22;28802;38.578;-0.066;2023-02-19T13:39:51;15.40;99.90
43183;DHT22;28802;38.578;-0.066;2023-02-19T13:42:35;15.40;99.90
43183;DHT22;28802;38.578;-0.066;2023-02-19T13:45:03;15.50;99.90
43183;DHT22;28802;38.578;-0.066;2023-02-19T13:50:25;15.00;99.90
43183;DHT22;28802;38.578;-0.066;2023-02-19T13:52:53;14.90;99.90
43183;DHT22;28802;38.578;-0.066;2023-02-19T14:03:43;14.80;99.90
43183;DHT22;28802;38.578;-0.066;2023-02-19T14:06:09;14.80;99.90
43183;DHT22;28802;38.578;-0.066;2023-02-19T14:08:55;14.80;99.90
43183;DHT22;28802;38.578;-0.066;2023-02-19T14:14:23;14.70;99.90
43183;DHT22;28802;38.578;-0.066;2023-02-19T14:16:55;14.80;99.90
43183;DHT22;28802;38.578;-0.066;2023-02-19T14:30:56;14.90;99.90
43183;DHT22;28802;38.578;-0.066;2023-02-19T14:33:34;14.90;99.90
43183;DHT22;28802;38.578;-0.066;2023-02-19T14:36:37;14.70;99.90
43183;DHT22;28802;38.578;-0.066;2023-02-19T14:39:28;14.60;99.90
43183;DHT22;28802;38.578;-0.066;2023-02-19T14:41:57;14.70;99.90
43183;DHT22;28802;38.578;-0.066;2023-02-19T14:44:30;14.70;99.90
43183;DHT22;28802;38.578;-0.066;2023-02-19T14:47:06;14.80;99.90
43183;DHT22;28802;38.578;-0.066;2023-02-19T14:49:39;14.70;99.90
43183;DHT22;28802;38.578;-0.066;2023-02-19T14:52:19;14.80;99.90
43183;DHT22;28802;38.578;-0.066;2023-02-19T14:57:21;14.80;99.90
43183;DHT22;28802;38.578;-0.066;2023-02-19T14:59:54;14.90;99.90
43183;DHT22;28802;38.578;-0.066;2023-02-19T15:02:20;14.80;99.90
43183;DHT22;28802;38.578;-0.066;2023-02-19T15:04:46;14.70;99.90
43183;DHT22;28802;38.578;-0.066;2023-02-19T15:07:16;14.70;99.90
43183;DHT22;28802;38.578;-0.066;2023-02-19T15:09:46;14.50;99.90
43183;DHT22;28802;38.578;-0.066;2023-02-19T15:12:22;14.60;99.90
43183;DHT22;28802;38.578;-0.066;2023-02-19T15:14:53;14.60;99.90
43183;DHT22;28802;38.578;-0.066;2023-02-19T15:17:29;14.40;99.90
43183;DHT22;28802;38.578;-0.066;2023-02-19T15:19:58;14.40;99.90
43183;DHT22;28802;38.578;-0.066;2023-02-19T15:22:29;14.30;99.90
43183;DHT22;28802;38.578;-0.066;2023-02-19T15:25:02;14.40;99.90
43183;DHT22;28802;38.578;-0.066;2023-02-19T15:27:30;14.30;99.90
43183;DHT22;28802;38.578;-0.066;2023-02-19T15:29:57;14.50;99.90
43183;DHT22;28802;38.578;-0.066;2023-02-19T15:32:25;14.40;99.90
43183;DHT22;28802;38.578;-0.066;2023-02-19T15:34:58;14.40;99.90
43183;DHT22;28802;38.578;-0.066;2023-02-19T15:37:27;14.30;99.90
43183;DHT22;28802;38.578;-0.066;2023-02-19T15:39:55;14.30;99.90
43183;DHT22;28802;38.578;-0.066;2023-02-19T15:42:26;14.20;99.90
43183;DHT22;28802;38.578;-0.066;2023-02-19T15:44:57;14.30;99.90
43183;DHT22;28802;38.578;-0.066;2023-02-19T15:50:13;14.20;99.90
43183;DHT22;28802;38.578;-0.066;2023-02-19T15:53:06;14.20;99.90
43183;DHT22;28802;38.578;-0.066;2023-02-19T15:55:44;14.20;99.90
43183;DHT22;28802;38.578;-0.066;2023-02-19T16:00:49;14.00;99.90
43183;DHT22;28802;38.578;-0.066;2023-02-19T16:03:19;14.00;99.90
43183;DHT22;28802;38.578;-0.066;2023-02-19T16:05:45;14.00;99.90
43183;DHT22;28802;38.578;-0.066;2023-02-19T16:08:34;13.90;99.90
43183;DHT22;28802;38.578;-0.066;2023-02-19T16:11:03;14.00;99.90
43183;DHT22;28802;38.578;-0.066;2023-02-19T16:13:31;14.10;99.90
43183;DHT22;28802;38.578;-0.066;2023-02-19T16:16:26;14.00;99.90
43183;DHT22;28802;38.578;-0.066;2023-02-19T16:18:55;13.90;99.90
43183;DHT22;28802;38.578;-0.066;2023-02-19T16:21:23;13.80;99.90
43183;DHT22;28802;38.578;-0.066;2023-02-19T16:24:14;13.90;99.90
43183;DHT22;28802;38.578;-0.066;2023-02-19T16:26:43;13.80;99.90
43183;DHT22;28802;38.578;-0.066;2023-02-19T16:29:19;13.70;99.90
43183;DHT22;28802;38.578;-0.066;2023-02-19T16:31:51;13.70;99.90
43183;DHT22;28802;38.578;-0.066;2023-02-19T16:37:01;13.80;99.90
43183;DHT22;28802;38.578;-0.066;2023-02-19T16:39:28;13.80;99.90
43183;DHT22;28802;38.578;-0.066;2023-02-19T16:42:14;13.80;99.90
43183;DHT22;28802;38.578;-0.066;2023-02-19T16:44:40;13.80;99.90
43183;DHT22;28802;38.578;-0.066;2023-02-19T16:47:22;13.80;99.90
43183;DHT22;28802;38.578;-0.066;2023-02-19T16:49:49;13.70;99.90
43183;DHT22;28802;38.578;-0.066;2023-02-19T16:52:15;13.70;99.90
43183;DHT22;28802;38.578;-0.066;2023-02-19T16:54:42;13.80;99.90
43183;DHT22;28802;38.578;-0.066;2023-02-19T16:57:08;13.80;99.90
43183;DHT22;28802;38.578;-0.066;2023-02-19T16:59:34;13.80;99.90
43183;DHT22;28802;38.578;-0.066;2023-02-19T17:02:02;13.70;99.90
43183;DHT22;28802;38.578;-0.066;2023-02-19T17:04:29;13.70;99.90
43183;DHT22;28802;38.578;-0.066;2023-02-19T17:06:55;13.60;99.90
43183;DHT22;28802;38.578;-0.066;2023-02-19T17:09:21;13.60;99.90
43183;DHT22;28802;38.578;-0.066;2023-02-19T17:11:47;13.60;99.90
43183;DHT22;28802;38.578;-0.066;2023-02-19T17:14:13;13.60;99.90
43183;DHT22;28802;38.578;-0.066;2023-02-19T17:16:38;13.60;99.90
43183;DHT22;28802;38.578;-0.066;2023-02-19T17:19:16;13.50;99.90
43183;DHT22;28802;38.578;-0.066;2023-02-19T17:21:43;13.70;99.90
43183;DHT22;28802;38.578;-0.066;2023-02-19T17:24:11;13.50;99.90
43183;DHT22;28802;38.578;-0.066;2023-02-19T17:26:40;13.60;99.90
43183;DHT22;28802;38.578;-0.066;2023-02-19T17:29:09;13.60;99.90
43183;DHT22;28802;38.578;-0.066;2023-02-19T17:31:40;13.70;99.90
43183;DHT22;28802;38.578;-0.066;2023-02-19T17:34:06;13.70;99.90
43183;DHT22;28802;38.578;-0.066;2023-02-19T17:36:32;13.60;99.90
43183;DHT22;28802;38.578;-0.066;2023-02-19T17:38:59;13.50;99.90
43183;DHT22;28802;38.578;-0.066;2023-02-19T17:41:26;13.50;99.90
43183;DHT22;28802;38.578;-0.066;2023-02-19T17:43:53;13.40;99.90
43183;DHT22;28802;38.578;-0.066;2023-02-19T17:46:21;13.40;99.90
43183;DHT22;28802;38.578;-0.066;2023-02-19T17:48:48;13.40;99.90
43183;DHT22;28802;38.578;-0.066;2023-02-19T17:51:14;13.40;99.90
43183;DHT22;28802;38.578;-0.066;2023-02-19T17:53:41;13.40;99.90
43183;DHT22;28802;38.578;-0.066;2023-02-19T17:56:07;13.40;99.90
43183;DHT22;28802;38.578;-0.066;2023-02-19T17:58:33;13.40;99.90
43183;DHT22;28802;38.578;-0.066;2023-02-19T18:00:59;13.40;99.90
43183;DHT22;28802;38.578;-0.066;2023-02-19T18:03:25;13.30;99.90
43183;DHT22;28802;38.578;-0.066;2023-02-19T18:05:51;13.40;99.90